Durango, CO

3:07 PM MST on February 12, 2016 (GMT -0700)
Edgemont Highlands | | Change Station
CLOSE
Current Station
Personal Weather Station
Location: Durango, CO
Elevation: 7484 ft
Nearby Weather Stations

Elev 7484 ft 37.31 °N, 107.79 °W | Updated 5 seconds ago

Clear
Clear
52.8 °F
Feels Like 52.8 °F
N
2.0
Wind Variable Wind from South
Gusts 4.0 mph

Today
High -- | Low -- °F
--% Chance of Precip.
Yesterday
High -- | Low -- °F
Precip. -- in
Pressure 30.43 in
Visibility 10.0 miles
Clouds Clear
Dew Point 22 °F
Humidity 30%
Rainfall Not available.
Snow Depth Not available.
7:04 AM 5:47 PM
Waxing Crescent, 24% visible
METAR KDRO 122153Z AUTO 05004KT 10SM CLR 07/M04 A3035 RMK AO2 SLP305 T00671044
Pressure 30.43 in
Visibility 10.0 miles
Clouds Clear
Dew Point 22 °F
Humidity 30%
Rainfall Not available.
Snow Depth Not available.
7:04 AM 5:47 PM
Waxing Crescent, 24% visible
METAR KDRO 122153Z AUTO 05004KT 10SM CLR 07/M04 A3035 RMK AO2 SLP305 T00671044

10-Day Weather Forecast

Almanac

Astronomy

Feb. 12, 2016 Rise Set
Actual Time
Civil Twilight
Nautical Twilight
Astronomical Twilight
Moon
Length of Visible Light
Length of Day
Tomorrow will be .
, % of the Moon is Illuminated

Today's Extremes

State Highs State Lows

Community

WunderPhotos

Upload Photos

1,892,411 photos uploaded!

WunderBlog® & News

Nearby

Air Quality

  Air Quality AQ Index Pollutant
Not available.

Snow Depth

Station Depth Elevation

Earthquake Activity

City Distance Mag. Time & Date
Minimum magnitude displayed is 2.5.

Coastal Water Temperatures

Place Temperature

Stations

Nearby Weather Stations

Station Location Temp. Windchill Dew Point Humidity Wind Precip. Elev Updated Type
                   

Watches & Warnings

There are currently no watches in effect.